sensor_id;sensor_type;location;lat;lon;timestamp;temperature;humidity
65378;SHT31;51982;51.042;13.806;2022-09-25T00:00:18;13.20;83.59
65378;SHT31;51982;51.042;13.806;2022-09-25T00:02:43;13.20;83.63
65378;SHT31;51982;51.042;13.806;2022-09-25T00:05:09;13.18;83.49
65378;SHT31;51982;51.042;13.806;2022-09-25T00:07:34;13.16;83.43
65378;SHT31;51982;51.042;13.806;2022-09-25T00:09:59;13.14;83.54
65378;SHT31;51982;51.042;13.806;2022-09-25T00:12:24;13.14;83.61
65378;SHT31;51982;51.042;13.806;2022-09-25T00:14:50;13.08;83.81
65378;SHT31;51982;51.042;13.806;2022-09-25T00:17:16;13.11;83.88
65378;SHT31;51982;51.042;13.806;2022-09-25T00:19:41;13.07;83.90
65378;SHT31;51982;51.042;13.806;2022-09-25T00:22:20;13.10;83.79
65378;SHT31;51982;51.042;13.806;2022-09-25T00:24:46;13.11;83.87
65378;SHT31;51982;51.042;13.806;2022-09-25T00:27:11;13.08;83.90
65378;SHT31;51982;51.042;13.806;2022-09-25T00:29:37;13.04;84.23
65378;SHT31;51982;51.042;13.806;2022-09-25T00:32:05;13.06;84.59
65378;SHT31;51982;51.042;13.806;2022-09-25T00:34:30;13.07;84.73
65378;SHT31;51982;51.042;13.806;2022-09-25T00:36:56;13.11;84.70
65378;SHT31;51982;51.042;13.806;2022-09-25T00:39:21;13.14;84.73
65378;SHT31;51982;51.042;13.806;2022-09-25T00:41:46;13.20;84.60
65378;SHT31;51982;51.042;13.806;2022-09-25T00:47:19;13.23;84.43
65378;SHT31;51982;51.042;13.806;2022-09-25T00:49:49;13.24;84.46
65378;SHT31;51982;51.042;13.806;2022-09-25T00:52:17;13.21;84.44
65378;SHT31;51982;51.042;13.806;2022-09-25T00:54:56;13.20;84.55
65378;SHT31;51982;51.042;13.806;2022-09-25T00:57:24;13.21;84.50
65378;SHT31;51982;51.042;13.806;2022-09-25T00:59:54;13.21;84.54
65378;SHT31;51982;51.042;13.806;2022-09-25T01:02:32;13.18;84.63
65378;SHT31;51982;51.042;13.806;2022-09-25T01:05:02;13.21;84.63
65378;SHT31;51982;51.042;13.806;2022-09-25T01:07:30;13.17;84.70
65378;SHT31;51982;51.042;13.806;2022-09-25T01:09:56;13.18;84.78
65378;SHT31;51982;51.042;13.806;2022-09-25T01:12:24;13.17;84.81
65378;SHT31;51982;51.042;13.806;2022-09-25T01:14:49;13.20;84.90
65378;SHT31;51982;51.042;13.806;2022-09-25T01:17:28;13.23;84.85
65378;SHT31;51982;51.042;13.806;2022-09-25T01:23:30;13.21;84.77
65378;SHT31;51982;51.042;13.806;2022-09-25T01:26:49;13.23;84.85
65378;SHT31;51982;51.042;13.806;2022-09-25T01:29:21;13.20;84.68
65378;SHT31;51982;51.042;13.806;2022-09-25T01:37:20;13.23;84.74
65378;SHT31;51982;51.042;13.806;2022-09-25T01:40:01;13.23;84.80
65378;SHT31;51982;51.042;13.806;2022-09-25T01:42:36;13.24;84.80
65378;SHT31;51982;51.042;13.806;2022-09-25T01:45:05;13.28;84.90
65378;SHT31;51982;51.042;13.806;2022-09-25T01:47:34;13.30;84.89
65378;SHT31;51982;51.042;13.806;2022-09-25T01:50:11;13.31;84.83
65378;SHT31;51982;51.042;13.806;2022-09-25T01:52:40;13.31;84.89
65378;SHT31;51982;51.042;13.806;2022-09-25T01:55:15;13.31;84.82
65378;SHT31;51982;51.042;13.806;2022-09-25T01:57:47;13.33;84.90
65378;SHT31;51982;51.042;13.806;2022-09-25T02:00:18;13.30;84.90
65378;SHT31;51982;51.042;13.806;2022-09-25T02:02:50;13.30;84.80
65378;SHT31;51982;51.042;13.806;2022-09-25T02:05:24;13.33;84.89
65378;SHT31;51982;51.042;13.806;2022-09-25T02:07:58;13.34;84.86
65378;SHT31;51982;51.042;13.806;2022-09-25T02:10:55;13.33;84.90
65378;SHT31;51982;51.042;13.806;2022-09-25T02:13:23;13.34;84.68
65378;SHT31;51982;51.042;13.806;2022-09-25T02:15:59;13.36;84.63
65378;SHT31;51982;51.042;13.806;2022-09-25T02:18:27;13.37;84.63
65378;SHT31;51982;51.042;13.806;2022-09-25T02:21:26;13.40;84.59
65378;SHT31;51982;51.042;13.806;2022-09-25T02:23:58;13.40;84.61
65378;SHT31;51982;51.042;13.806;2022-09-25T02:26:31;13.37;84.61
65378;SHT31;51982;51.042;13.806;2022-09-25T02:28:57;13.38;84.66
65378;SHT31;51982;51.042;13.806;2022-09-25T02:31:33;13.30;84.64
65378;SHT31;51982;51.042;13.806;2022-09-25T02:34:00;13.33;84.77
65378;SHT31;51982;51.042;13.806;2022-09-25T02:36:25;13.30;84.93
65378;SHT31;51982;51.042;13.806;2022-09-25T02:38:52;13.36;84.88
65378;SHT31;51982;51.042;13.806;2022-09-25T02:47:13;13.37;84.83
65378;SHT31;51982;51.042;13.806;2022-09-25T02:52:28;13.40;84.44
65378;SHT31;51982;51.042;13.806;2022-09-25T02:55:05;13.38;84.35
65378;SHT31;51982;51.042;13.806;2022-09-25T02:57:53;13.41;84.46
65378;SHT31;51982;51.042;13.806;2022-09-25T03:00:20;13.43;84.41
65378;SHT31;51982;51.042;13.806;2022-09-25T03:02:53;13.41;84.35
65378;SHT31;51982;51.042;13.806;2022-09-25T03:05:19;13.44;84.40
65378;SHT31;51982;51.042;13.806;2022-09-25T03:07:46;13.43;84.40
65378;SHT31;51982;51.042;13.806;2022-09-25T03:10:31;13.41;84.27
65378;SHT31;51982;51.042;13.806;2022-09-25T03:13:15;13.37;84.12
65378;SHT31;51982;51.042;13.806;2022-09-25T03:15:44;13.43;84.10
65378;SHT31;51982;51.042;13.806;2022-09-25T03:18:10;13.40;84.08
65378;SHT31;51982;51.042;13.806;2022-09-25T03:20:36;13.41;84.13
65378;SHT31;51982;51.042;13.806;2022-09-25T03:23:01;13.41;83.99
65378;SHT31;51982;51.042;13.806;2022-09-25T03:25:27;13.41;83.82
65378;SHT31;51982;51.042;13.806;2022-09-25T03:27:52;13.43;83.83
65378;SHT31;51982;51.042;13.806;2022-09-25T03:30:17;13.43;83.78
65378;SHT31;51982;51.042;13.806;2022-09-25T03:32:42;13.40;83.80
65378;SHT31;51982;51.042;13.806;2022-09-25T03:35:08;13.43;83.69
65378;SHT31;51982;51.042;13.806;2022-09-25T03:37:33;13.41;83.60
65378;SHT31;51982;51.042;13.806;2022-09-25T03:39:59;13.43;83.54
65378;SHT31;51982;51.042;13.806;2022-09-25T03:42:25;13.43;83.55
65378;SHT31;51982;51.042;13.806;2022-09-25T03:44:52;13.46;83.51
65378;SHT31;51982;51.042;13.806;2022-09-25T03:47:17;13.41;83.48
65378;SHT31;51982;51.042;13.806;2022-09-25T03:49:42;13.44;83.61
65378;SHT31;51982;51.042;13.806;2022-09-25T03:52:08;13.44;83.75
65378;SHT31;51982;51.042;13.806;2022-09-25T03:54:36;13.44;83.78
65378;SHT31;51982;51.042;13.806;2022-09-25T03:57:01;13.43;83.95
65378;SHT31;51982;51.042;13.806;2022-09-25T03:59:27;13.43;84.00
65378;SHT31;51982;51.042;13.806;2022-09-25T04:01:52;13.41;84.13
65378;SHT31;51982;51.042;13.806;2022-09-25T04:04:17;13.46;84.20
65378;SHT31;51982;51.042;13.806;2022-09-25T04:06:42;13.44;84.26
65378;SHT31;51982;51.042;13.806;2022-09-25T04:09:07;13.43;84.38
65378;SHT31;51982;51.042;13.806;2022-09-25T04:11:33;13.40;84.51
65378;SHT31;51982;51.042;13.806;2022-09-25T04:13:59;13.40;84.47
65378;SHT31;51982;51.042;13.806;2022-09-25T04:16:25;13.38;84.44
65378;SHT31;51982;51.042;13.806;2022-09-25T04:18:51;13.40;84.21
65378;SHT31;51982;51.042;13.806;2022-09-25T04:21:17;13.43;84.20
65378;SHT31;51982;51.042;13.806;2022-09-25T04:23:42;13.41;84.07
65378;SHT31;51982;51.042;13.806;2022-09-25T04:26:27;13.43;84.09
65378;SHT31;51982;51.042;13.806;2022-09-25T04:28:53;13.44;84.13
65378;SHT31;51982;51.042;13.806;2022-09-25T04:31:19;13.46;83.97
65378;SHT31;51982;51.042;13.806;2022-09-25T04:33:44;13.43;84.04
65378;SHT31;51982;51.042;13.806;2022-09-25T04:36:14;13.41;84.07
65378;SHT31;51982;51.042;13.806;2022-09-25T04:38:39;13.41;84.05
65378;SHT31;51982;51.042;13.806;2022-09-25T04:41:04;13.43;84.11
65378;SHT31;51982;51.042;13.806;2022-09-25T04:43:31;13.44;84.18
65378;SHT31;51982;51.042;13.806;2022-09-25T04:46:01;13.43;84.21
65378;SHT31;51982;51.042;13.806;2022-09-25T04:48:26;13.43;84.30
65378;SHT31;51982;51.042;13.806;2022-09-25T04:50:52;13.41;84.35
65378;SHT31;51982;51.042;13.806;2022-09-25T04:53:17;13.43;84.40
65378;SHT31;51982;51.042;13.806;2022-09-25T04:55:43;13.43;84.36
65378;SHT31;51982;51.042;13.806;2022-09-25T04:58:09;13.41;84.33
65378;SHT31;51982;51.042;13.806;2022-09-25T05:00:35;13.44;84.30
65378;SHT31;51982;51.042;13.806;2022-09-25T05:03:03;13.43;84.23
65378;SHT31;51982;51.042;13.806;2022-09-25T05:05:29;13.40;84.21
65378;SHT31;51982;51.042;13.806;2022-09-25T05:07:56;13.40;84.16
65378;SHT31;51982;51.042;13.806;2022-09-25T05:10:23;13.41;83.96
65378;SHT31;51982;51.042;13.806;2022-09-25T05:13:02;13.43;83.85
65378;SHT31;51982;51.042;13.806;2022-09-25T05:15:29;13.41;84.01
65378;SHT31;51982;51.042;13.806;2022-09-25T05:18:17;13.43;84.03
65378;SHT31;51982;51.042;13.806;2022-09-25T05:20:42;13.43;83.92
65378;SHT31;51982;51.042;13.806;2022-09-25T05:23:08;13.43;83.76
65378;SHT31;51982;51.042;13.806;2022-09-25T05:25:33;13.46;83.87
65378;SHT31;51982;51.042;13.806;2022-09-25T05:28:00;13.43;83.81
65378;SHT31;51982;51.042;13.806;2022-09-25T05:30:30;13.50;83.86
65378;SHT31;51982;51.042;13.806;2022-09-25T05:32:56;13.48;83.88
65378;SHT31;51982;51.042;13.806;2022-09-25T05:35:29;13.48;83.84
65378;SHT31;51982;51.042;13.806;2022-09-25T05:37:55;13.54;84.11
65378;SHT31;51982;51.042;13.806;2022-09-25T05:40:21;13.53;84.00
65378;SHT31;51982;51.042;13.806;2022-09-25T05:42:47;13.54;83.92
65378;SHT31;51982;51.042;13.806;2022-09-25T05:45:14;13.54;83.81
65378;SHT31;51982;51.042;13.806;2022-09-25T05:47:40;13.54;83.73
65378;SHT31;51982;51.042;13.806;2022-09-25T05:50:07;13.55;83.60
65378;SHT31;51982;51.042;13.806;2022-09-25T05:52:34;13.55;83.57
65378;SHT31;51982;51.042;13.806;2022-09-25T05:55:00;13.59;83.44
65378;SHT31;51982;51.042;13.806;2022-09-25T05:57:29;13.59;83.40
65378;SHT31;51982;51.042;13.806;2022-09-25T05:59:54;13.64;83.46
65378;SHT31;51982;51.042;13.806;2022-09-25T06:02:20;13.69;83.45
65378;SHT31;51982;51.042;13.806;2022-09-25T06:04:45;13.72;83.41
65378;SHT31;51982;51.042;13.806;2022-09-25T06:07:10;13.77;83.33
65378;SHT31;51982;51.042;13.806;2022-09-25T06:09:35;13.82;83.27
65378;SHT31;51982;51.042;13.806;2022-09-25T06:12:01;13.85;83.17
65378;SHT31;51982;51.042;13.806;2022-09-25T06:14:27;13.86;82.96
65378;SHT31;51982;51.042;13.806;2022-09-25T06:16:52;13.94;82.79
65378;SHT31;51982;51.042;13.806;2022-09-25T06:19:17;13.94;82.76
65378;SHT31;51982;51.042;13.806;2022-09-25T06:21:43;13.95;82.74
65378;SHT31;51982;51.042;13.806;2022-09-25T06:24:09;13.99;82.71
65378;SHT31;51982;51.042;13.806;2022-09-25T06:26:37;14.02;82.64
65378;SHT31;51982;51.042;13.806;2022-09-25T06:29:03;14.05;82.53
65378;SHT31;51982;51.042;13.806;2022-09-25T06:31:28;14.13;82.48
65378;SHT31;51982;51.042;13.806;2022-09-25T06:33:54;14.20;82.47
65378;SHT31;51982;51.042;13.806;2022-09-25T06:36:19;14.33;82.25
65378;SHT31;51982;51.042;13.806;2022-09-25T06:38:44;14.42;82.08
65378;SHT31;51982;51.042;13.806;2022-09-25T06:41:10;14.46;81.88
65378;SHT31;51982;51.042;13.806;2022-09-25T06:43:36;14.50;81.76
65378;SHT31;51982;51.042;13.806;2022-09-25T06:46:01;14.49;81.54
65378;SHT31;51982;51.042;13.806;2022-09-25T06:48:27;14.52;81.47
65378;SHT31;51982;51.042;13.806;2022-09-25T06:50:56;14.52;81.37
65378;SHT31;51982;51.042;13.806;2022-09-25T06:53:23;14.52;81.41
65378;SHT31;51982;51.042;13.806;2022-09-25T06:55:50;14.52;81.36
65378;SHT31;51982;51.042;13.806;2022-09-25T06:58:20;14.44;81.36
65378;SHT31;51982;51.042;13.806;2022-09-25T07:00:51;14.46;81.49
65378;SHT31;51982;51.042;13.806;2022-09-25T07:03:16;14.50;81.42
65378;SHT31;51982;51.042;13.806;2022-09-25T07:06:02;14.47;81.22
65378;SHT31;51982;51.042;13.806;2022-09-25T07:08:28;14.47;81.21
65378;SHT31;51982;51.042;13.806;2022-09-25T07:10:55;14.49;81.14
65378;SHT31;51982;51.042;13.806;2022-09-25T07:13:25;14.46;81.21
65378;SHT31;51982;51.042;13.806;2022-09-25T07:15:56;14.46;81.08
65378;SHT31;51982;51.042;13.806;2022-09-25T07:18:22;14.49;81.21
65378;SHT31;51982;51.042;13.806;2022-09-25T07:20:49;14.50;81.30
65378;SHT31;51982;51.042;13.806;2022-09-25T07:23:16;14.47;81.18
65378;SHT31;51982;51.042;13.806;2022-09-25T07:25:42;14.47;81.21
65378;SHT31;51982;51.042;13.806;2022-09-25T07:28:09;14.52;81.15
65378;SHT31;51982;51.042;13.806;2022-09-25T07:30:35;14.59;80.92
65378;SHT31;51982;51.042;13.806;2022-09-25T07:33:01;14.60;80.88
65378;SHT31;51982;51.042;13.806;2022-09-25T07:35:26;14.61;80.87
65378;SHT31;51982;51.042;13.806;2022-09-25T07:37:55;14.59;80.99
65378;SHT31;51982;51.042;13.806;2022-09-25T07:40:20;14.55;81.20
65378;SHT31;51982;51.042;13.806;2022-09-25T07:42:45;14.47;81.36
65378;SHT31;51982;51.042;13.806;2022-09-25T07:45:10;14.47;81.33
65378;SHT31;51982;51.042;13.806;2022-09-25T07:47:36;14.49;81.42
65378;SHT31;51982;51.042;13.806;2022-09-25T07:50:01;14.53;81.48
65378;SHT31;51982;51.042;13.806;2022-09-25T07:52:26;14.55;81.47
65378;SHT31;51982;51.042;13.806;2022-09-25T07:54:51;14.55;81.53
65378;SHT31;51982;51.042;13.806;2022-09-25T07:57:17;14.53;81.59
65378;SHT31;51982;51.042;13.806;2022-09-25T07:59:47;14.50;81.62
65378;SHT31;51982;51.042;13.806;2022-09-25T08:02:12;14.55;81.70
65378;SHT31;51982;51.042;13.806;2022-09-25T08:04:37;14.56;81.73
65378;SHT31;51982;51.042;13.806;2022-09-25T08:07:03;14.61;81.93
65378;SHT31;51982;51.042;13.806;2022-09-25T08:09:29;14.63;81.75
65378;SHT31;51982;51.042;13.806;2022-09-25T08:11:54;14.63;81.53
65378;SHT31;51982;51.042;13.806;2022-09-25T08:14:19;14.69;81.28
65378;SHT31;51982;51.042;13.806;2022-09-25T08:16:45;14.73;81.07
65378;SHT31;51982;51.042;13.806;2022-09-25T08:19:11;14.80;80.80
65378;SHT31;51982;51.042;13.806;2022-09-25T08:21:37;14.83;80.81
65378;SHT31;51982;51.042;13.806;2022-09-25T08:24:03;14.84;80.77
65378;SHT31;51982;51.042;13.806;2022-09-25T08:26:28;14.83;80.88
65378;SHT31;51982;51.042;13.806;2022-09-25T08:28:54;14.83;80.89
65378;SHT31;51982;51.042;13.806;2022-09-25T08:31:19;14.85;80.94
65378;SHT31;51982;51.042;13.806;2022-09-25T08:33:46;14.90;80.80
65378;SHT31;51982;51.042;13.806;2022-09-25T08:36:12;14.91;80.67
65378;SHT31;51982;51.042;13.806;2022-09-25T08:38:38;14.94;80.71
65378;SHT31;51982;51.042;13.806;2022-09-25T08:41:13;14.93;80.88
65378;SHT31;51982;51.042;13.806;2022-09-25T08:43:42;14.91;80.89
65378;SHT31;51982;51.042;13.806;2022-09-25T08:46:18;14.94;80.96
65378;SHT31;51982;51.042;13.806;2022-09-25T08:49:03;14.95;80.97
65378;SHT31;51982;51.042;13.806;2022-09-25T08:51:58;14.98;81.14
65378;SHT31;51982;51.042;13.806;2022-09-25T08:54:28;15.03;80.92
65378;SHT31;51982;51.042;13.806;2022-09-25T08:56:57;15.05;81.16
65378;SHT31;51982;51.042;13.806;2022-09-25T08:59:33;15.07;80.92
65378;SHT31;51982;51.042;13.806;2022-09-25T09:02:08;15.12;80.93
65378;SHT31;51982;51.042;13.806;2022-09-25T09:04:44;15.17;80.81
65378;SHT31;51982;51.042;13.806;2022-09-25T09:07:14;15.20;80.87
65378;SHT31;51982;51.042;13.806;2022-09-25T09:09:44;15.24;80.77
65378;SHT31;51982;51.042;13.806;2022-09-25T09:12:19;15.25;80.50
65378;SHT31;51982;51.042;13.806;2022-09-25T09:14:48;15.32;80.48
65378;SHT31;51982;51.042;13.806;2022-09-25T09:17:18;15.35;80.23
65378;SHT31;51982;51.042;13.806;2022-09-25T09:19:46;15.39;80.33
65378;SHT31;51982;51.042;13.806;2022-09-25T09:22:13;15.39;80.23
65378;SHT31;51982;51.042;13.806;2022-09-25T09:30:13;15.52;79.70
65378;SHT31;51982;51.042;13.806;2022-09-25T09:33:05;15.55;79.38
65378;SHT31;51982;51.042;13.806;2022-09-25T09:38:45;15.59;79.54
65378;SHT31;51982;51.042;13.806;2022-09-25T09:41:33;15.63;79.77
65378;SHT31;51982;51.042;13.806;2022-09-25T09:49:51;15.73;79.45
65378;SHT31;51982;51.042;13.806;2022-09-25T09:52:37;15.72;78.91
65378;SHT31;51982;51.042;13.806;2022-09-25T09:55:40;15.75;78.75
65378;SHT31;51982;51.042;13.806;2022-09-25T09:58:34;15.81;78.81
65378;SHT31;51982;51.042;13.806;2022-09-25T10:01:04;15.82;79.07
65378;SHT31;51982;51.042;13.806;2022-09-25T10:03:34;15.86;79.11
65378;SHT31;51982;51.042;13.806;2022-09-25T10:06:06;15.92;78.93
65378;SHT31;51982;51.042;13.806;2022-09-25T10:08:33;15.95;78.60
65378;SHT31;51982;51.042;13.806;2022-09-25T10:10:59;15.99;78.44
65378;SHT31;51982;51.042;13.806;2022-09-25T10:13:29;16.00;78.40
65378;SHT31;51982;51.042;13.806;2022-09-25T10:15:59;16.05;78.30
65378;SHT31;51982;51.042;13.806;2022-09-25T10:18:30;16.09;78.21
65378;SHT31;51982;51.042;13.806;2022-09-25T10:21:04;16.10;77.92
65378;SHT31;51982;51.042;13.806;2022-09-25T10:23:41;16.13;77.08
65378;SHT31;51982;51.042;13.806;2022-09-25T10:28:51;16.21;77.06
65378;SHT31;51982;51.042;13.806;2022-09-25T10:31:18;16.26;77.04
65378;SHT31;51982;51.042;13.806;2022-09-25T10:34:04;16.30;76.07
65378;SHT31;51982;51.042;13.806;2022-09-25T10:36:37;16.33;76.40
65378;SHT31;51982;51.042;13.806;2022-09-25T10:39:04;16.37;76.06
65378;SHT31;51982;51.042;13.806;2022-09-25T10:41:40;16.38;76.22
65378;SHT31;51982;51.042;13.806;2022-09-25T10:44:19;16.46;76.15
65378;SHT31;51982;51.042;13.806;2022-09-25T10:46:44;16.47;76.25
65378;SHT31;51982;51.042;13.806;2022-09-25T10:49:28;16.53;75.43
65378;SHT31;51982;51.042;13.806;2022-09-25T10:52:14;16.58;75.40
65378;SHT31;51982;51.042;13.806;2022-09-25T10:54:40;16.58;75.56
65378;SHT31;51982;51.042;13.806;2022-09-25T10:57:28;16.63;74.83
65378;SHT31;51982;51.042;13.806;2022-09-25T10:59:58;16.68;74.72
65378;SHT31;51982;51.042;13.806;2022-09-25T11:02:32;16.72;74.18
65378;SHT31;51982;51.042;13.806;2022-09-25T11:05:00;16.75;73.65
65378;SHT31;51982;51.042;13.806;2022-09-25T11:07:26;16.81;73.87
65378;SHT31;51982;51.042;13.806;2022-09-25T11:09:52;16.85;74.07
65378;SHT31;51982;51.042;13.806;2022-09-25T11:12:22;16.88;74.44
65378;SHT31;51982;51.042;13.806;2022-09-25T11:15:18;16.95;73.20
65378;SHT31;51982;51.042;13.806;2022-09-25T11:17:46;16.99;73.35
65378;SHT31;51982;51.042;13.806;2022-09-25T11:25:51;17.14;73.51
65378;SHT31;51982;51.042;13.806;2022-09-25T11:28:30;17.15;73.49
65378;SHT31;51982;51.042;13.806;2022-09-25T11:33:55;17.21;73.20
65378;SHT31;51982;51.042;13.806;2022-09-25T11:36:34;17.26;71.67
65378;SHT31;51982;51.042;13.806;2022-09-25T11:39:04;17.32;71.81
65378;SHT31;51982;51.042;13.806;2022-09-25T11:42:08;17.36;72.11
65378;SHT31;51982;51.042;13.806;2022-09-25T11:44:46;17.40;72.01
65378;SHT31;51982;51.042;13.806;2022-09-25T11:47:39;17.53;70.74
65378;SHT31;51982;51.042;13.806;2022-09-25T11:50:11;17.60;71.04
65378;SHT31;51982;51.042;13.806;2022-09-25T11:52:52;17.67;71.11
65378;SHT31;51982;51.042;13.806;2022-09-25T11:56:07;17.62;69.98
65378;SHT31;51982;51.042;13.806;2022-09-25T12:01:13;17.70;70.54
65378;SHT31;51982;51.042;13.806;2022-09-25T12:12:58;17.83;70.64
65378;SHT31;51982;51.042;13.806;2022-09-25T12:15:45;17.91;70.53
65378;SHT31;51982;51.042;13.806;2022-09-25T12:21:07;18.08;68.49
65378;SHT31;51982;51.042;13.806;2022-09-25T12:23:42;18.05;69.07
65378;SHT31;51982;51.042;13.806;2022-09-25T12:26:31;18.05;68.84
65378;SHT31;51982;51.042;13.806;2022-09-25T12:31:38;18.03;68.15
65378;SHT31;51982;51.042;13.806;2022-09-25T12:34:27;18.00;66.45
65378;SHT31;51982;51.042;13.806;2022-09-25T12:37:19;17.98;67.06
65378;SHT31;51982;51.042;13.806;2022-09-25T12:39:53;17.97;67.88
65378;SHT31;51982;51.042;13.806;2022-09-25T12:42:42;17.98;68.20
65378;SHT31;51982;51.042;13.806;2022-09-25T12:45:15;18.00;68.15
65378;SHT31;51982;51.042;13.806;2022-09-25T12:47:44;18.03;66.35
65378;SHT31;51982;51.042;13.806;2022-09-25T12:50:47;18.04;66.48
65378;SHT31;51982;51.042;13.806;2022-09-25T12:53:22;18.03;67.74
65378;SHT31;51982;51.042;13.806;2022-09-25T12:55:58;18.07;67.52
65378;SHT31;51982;51.042;13.806;2022-09-25T12:58:34;18.07;68.02
65378;SHT31;51982;51.042;13.806;2022-09-25T13:01:12;18.03;67.99
65378;SHT31;51982;51.042;13.806;2022-09-25T13:03:48;18.03;67.07
65378;SHT31;51982;51.042;13.806;2022-09-25T13:06:30;18.08;66.96
65378;SHT31;51982;51.042;13.806;2022-09-25T13:09:11;18.11;67.34
65378;SHT31;51982;51.042;13.806;2022-09-25T13:11:43;18.14;67.09
65378;SHT31;51982;51.042;13.806;2022-09-25T13:14:24;18.23;66.27
65378;SHT31;51982;51.042;13.806;2022-09-25T13:16:51;18.24;66.80
65378;SHT31;51982;51.042;13.806;2022-09-25T13:19:28;18.28;66.50
65378;SHT31;51982;51.042;13.806;2022-09-25T13:24:48;18.38;66.77
65378;SHT31;51982;51.042;13.806;2022-09-25T13:27:19;18.47;66.67
65378;SHT31;51982;51.042;13.806;2022-09-25T13:29:52;18.52;66.87
65378;SHT31;51982;51.042;13.806;2022-09-25T13:32:19;18.62;66.30
65378;SHT31;51982;51.042;13.806;2022-09-25T13:34:50;18.66;66.02
65378;SHT31;51982;51.042;13.806;2022-09-25T13:37:23;18.71;65.43
65378;SHT31;51982;51.042;13.806;2022-09-25T13:39:49;18.81;65.45
65378;SHT31;51982;51.042;13.806;2022-09-25T13:42:36;18.88;65.13
65378;SHT31;51982;51.042;13.806;2022-09-25T13:45:31;18.91;63.38
65378;SHT31;51982;51.042;13.806;2022-09-25T13:48:10;19.02;64.87
65378;SHT31;51982;51.042;13.806;2022-09-25T13:50:40;19.03;64.70
65378;SHT31;51982;51.042;13.806;2022-09-25T13:53:11;19.05;64.87
65378;SHT31;51982;51.042;13.806;2022-09-25T13:58:22;19.09;64.69
65378;SHT31;51982;51.042;13.806;2022-09-25T14:03:38;19.20;63.86
65378;SHT31;51982;51.042;13.806;2022-09-25T14:06:16;19.28;63.05
65378;SHT31;51982;51.042;13.806;2022-09-25T14:08:44;19.33;63.87
65378;SHT31;51982;51.042;13.806;2022-09-25T14:11:14;19.31;63.79
65378;SHT31;51982;51.042;13.806;2022-09-25T14:13:41;19.36;64.32
65378;SHT31;51982;51.042;13.806;2022-09-25T14:16:27;19.47;66.35
65378;SHT31;51982;51.042;13.806;2022-09-25T14:18:56;19.56;66.57
65378;SHT31;51982;51.042;13.806;2022-09-25T14:21:22;19.54;67.26
65378;SHT31;51982;51.042;13.806;2022-09-25T14:23:50;19.56;67.67
65378;SHT31;51982;51.042;13.806;2022-09-25T14:26:20;19.56;68.03
65378;SHT31;51982;51.042;13.806;2022-09-25T14:28:48;19.58;68.09
65378;SHT31;51982;51.042;13.806;2022-09-25T14:34:34;19.63;67.21
65378;SHT31;51982;51.042;13.806;2022-09-25T14:43:01;19.40;68.26
65378;SHT31;51982;51.042;13.806;2022-09-25T14:45:53;19.31;68.57
65378;SHT31;51982;51.042;13.806;2022-09-25T14:51:12;19.22;68.98
65378;SHT31;51982;51.042;13.806;2022-09-25T14:53:42;19.15;69.12
65378;SHT31;51982;51.042;13.806;2022-09-25T14:56:09;19.13;69.49
65378;SHT31;51982;51.042;13.806;2022-09-25T14:58:39;19.13;69.39
65378;SHT31;51982;51.042;13.806;2022-09-25T15:01:41;19.15;69.20
65378;SHT31;51982;51.042;13.806;2022-09-25T15:04:03;19.13;69.17
65378;SHT31;51982;51.042;13.806;2022-09-25T15:06:31;19.13;69.12
65378;SHT31;51982;51.042;13.806;2022-09-25T15:08:57;19.13;68.93
65378;SHT31;51982;51.042;13.806;2022-09-25T15:11:25;19.09;68.74
65378;SHT31;51982;51.042;13.806;2022-09-25T15:13:52;19.07;68.66
65378;SHT31;51982;51.042;13.806;2022-09-25T15:16:23;19.06;68.68
65378;SHT31;51982;51.042;13.806;2022-09-25T15:19:15;18.98;68.80
65378;SHT31;51982;51.042;13.806;2022-09-25T15:21:42;18.93;69.08
65378;SHT31;51982;51.042;13.806;2022-09-25T15:24:13;18.86;69.14
65378;SHT31;51982;51.042;13.806;2022-09-25T15:26:50;18.84;69.24
65378;SHT31;51982;51.042;13.806;2022-09-25T15:29:19;18.84;69.27
65378;SHT31;51982;51.042;13.806;2022-09-25T15:31:45;18.77;69.43
65378;SHT31;51982;51.042;13.806;2022-09-25T15:34:19;18.72;69.54
65378;SHT31;51982;51.042;13.806;2022-09-25T15:36:45;18.71;69.75
65378;SHT31;51982;51.042;13.806;2022-09-25T15:39:16;18.62;69.91
65378;SHT31;51982;51.042;13.806;2022-09-25T15:41:42;18.61;70.24
65378;SHT31;51982;51.042;13.806;2022-09-25T15:46:43;18.47;71.16
65378;SHT31;51982;51.042;13.806;2022-09-25T15:49:17;18.41;71.27
65378;SHT31;51982;51.042;13.806;2022-09-25T15:51:50;18.37;71.28
65378;SHT31;51982;51.042;13.806;2022-09-25T15:54:44;18.30;71.94
65378;SHT31;51982;51.042;13.806;2022-09-25T15:57:13;18.25;71.73
65378;SHT31;51982;51.042;13.806;2022-09-25T15:59:42;18.28;71.82
65378;SHT31;51982;51.042;13.806;2022-09-25T16:02:28;18.21;72.01
65378;SHT31;51982;51.042;13.806;2022-09-25T16:05:15;18.15;72.22
65378;SHT31;51982;51.042;13.806;2022-09-25T16:07:44;18.11;72.47
65378;SHT31;51982;51.042;13.806;2022-09-25T16:17:56;17.98;73.19
65378;SHT31;51982;51.042;13.806;2022-09-25T16:20:56;17.94;73.89
65378;SHT31;51982;51.042;13.806;2022-09-25T16:23:27;17.87;73.71
65378;SHT31;51982;51.042;13.806;2022-09-25T16:25:54;17.83;74.01
65378;SHT31;51982;51.042;13.806;2022-09-25T16:28:24;17.76;74.25
65378;SHT31;51982;51.042;13.806;2022-09-25T16:30:59;17.70;74.51
65378;SHT31;51982;51.042;13.806;2022-09-25T16:33:28;17.67;74.74
65378;SHT31;51982;51.042;13.806;2022-09-25T16:35:58;17.60;74.90
65378;SHT31;51982;51.042;13.806;2022-09-25T16:38:27;17.57;75.22
65378;SHT31;51982;51.042;13.806;2022-09-25T16:43:27;17.52;75.79
65378;SHT31;51982;51.042;13.806;2022-09-25T16:46:00;17.45;76.24
65378;SHT31;51982;51.042;13.806;2022-09-25T16:48:35;17.43;76.36
65378;SHT31;51982;51.042;13.806;2022-09-25T16:51:02;17.39;76.60
65378;SHT31;51982;51.042;13.806;2022-09-25T16:53:29;17.38;76.75
65378;SHT31;51982;51.042;13.806;2022-09-25T16:55:54;17.30;76.95
65378;SHT31;51982;51.042;13.806;2022-09-25T16:58:20;17.28;77.09
65378;SHT31;51982;51.042;13.806;2022-09-25T17:00:47;17.23;77.29
65378;SHT31;51982;51.042;13.806;2022-09-25T17:03:13;17.21;77.56
65378;SHT31;51982;51.042;13.806;2022-09-25T17:05:38;17.15;77.65
65378;SHT31;51982;51.042;13.806;2022-09-25T17:08:18;17.12;78.06
65378;SHT31;51982;51.042;13.806;2022-09-25T17:10:46;17.08;78.04
65378;SHT31;51982;51.042;13.806;2022-09-25T17:13:14;17.08;78.39
65378;SHT31;51982;51.042;13.806;2022-09-25T17:15:40;17.04;78.60